createdAt,value
2023-05-06T00:02:22.286Z,23.48
2023-05-06T00:07:26.934Z,25.90
2023-05-06T00:12:29.965Z,29.77
2023-05-06T00:17:33.031Z,31.95
2023-05-06T00:22:36.040Z,21.85
2023-05-06T00:27:39.406Z,30.33
2023-05-06T00:32:42.416Z,37.15
2023-05-06T00:37:47.047Z,18.80
2023-05-06T00:42:50.064Z,18.52
2023-05-06T00:47:53.735Z,26.80
2023-05-06T00:52:59.495Z,25.08
2023-05-06T00:58:02.631Z,22.70
2023-05-06T01:03:06.091Z,26.08
2023-05-06T01:08:21.848Z,32.35
2023-05-06T01:13:47.440Z,13.30
2023-05-06T01:18:54.316Z,27.40
2023-05-06T01:23:58.602Z,22.33
2023-05-06T01:29:04.841Z,24.27
2023-05-06T01:34:34.442Z,22.10
2023-05-06T01:39:41.993Z,23.92
2023-05-06T01:44:49.049Z,27.95
2023-05-06T01:49:52.612Z,20.25
2023-05-06T01:54:55.652Z,27.42
2023-05-06T01:59:58.894Z,24.80
2023-05-06T02:05:02.027Z,21.70
2023-05-06T02:10:06.988Z,19.45
2023-05-06T02:15:12.330Z,17.98
2023-05-06T02:20:15.638Z,30.73
2023-05-06T02:25:18.899Z,28.55
2023-05-06T02:30:21.962Z,29.13
2023-05-06T02:35:25.035Z,18.70
2023-05-06T02:40:28.120Z,26.52
2023-05-06T02:45:31.282Z,39.78
2023-05-06T02:50:36.481Z,38.55
2023-05-06T02:55:39.704Z,37.40
2023-05-06T03:00:43.044Z,29.52
2023-05-06T03:05:46.102Z,28.83
2023-05-06T03:10:49.065Z,27.52
2023-05-06T03:15:55.114Z,20.20
2023-05-06T03:20:58.322Z,19.38
2023-05-06T03:26:02.624Z,23.33
2023-05-06T03:31:06.020Z,34.35
2023-05-06T03:36:13.060Z,29.40
2023-05-06T03:41:18.640Z,34.53
2023-05-06T03:46:22.029Z,24.65
2023-05-06T03:51:26.229Z,29.45
2023-05-06T03:56:30.796Z,23.13
2023-05-06T04:01:35.581Z,27.98
2023-05-06T04:06:38.996Z,28.50
2023-05-06T04:11:42.033Z,23.83
2023-05-06T04:16:48.519Z,31.75
2023-05-06T04:21:51.644Z,23.10
2023-05-06T04:26:56.257Z,18.70
2023-05-06T04:32:00.430Z,20.13
2023-05-06T04:37:07.439Z,20.77
2023-05-06T04:42:19.130Z,17.55
2023-05-06T04:47:29.198Z,19.70
2023-05-06T04:52:32.594Z,13.98
2023-05-06T04:57:36.048Z,20.05
2023-05-06T05:02:40.146Z,34.03
2023-05-06T05:07:43.844Z,22.73
2023-05-06T05:12:47.361Z,19.20
2023-05-06T05:17:51.472Z,20.08
2023-05-06T05:22:58.119Z,16.73
2023-05-06T05:28:01.241Z,21.13
2023-05-06T05:33:05.919Z,18.13
2023-05-06T05:38:09.596Z,16.15
2023-05-06T05:43:14.154Z,18.08
2023-05-06T05:53:21.794Z,18.75
2023-05-06T05:58:24.862Z,15.13
2023-05-06T06:03:30.254Z,17.25
2023-05-06T06:08:34.086Z,15.07
2023-05-06T06:13:37.895Z,14.38
2023-05-06T06:18:41.655Z,13.43
2023-05-06T06:23:44.711Z,9.82
2023-05-06T06:28:48.290Z,9.63
2023-05-06T06:33:51.731Z,8.38
2023-05-06T06:38:54.799Z,11.40
2023-05-06T06:43:57.788Z,14.45
2023-05-06T06:49:04.833Z,12.50
2023-05-06T06:54:07.875Z,17.88
2023-05-06T06:59:10.991Z,16.17
2023-05-06T07:04:14.013Z,12.02
2023-05-06T07:09:17.224Z,12.52
2023-05-06T07:14:21.091Z,15.70
2023-05-06T07:19:24.130Z,7.55
2023-05-06T07:24:27.174Z,11.07
2023-05-06T07:29:30.189Z,11.13
2023-05-06T07:34:34.498Z,16.08
2023-05-06T07:39:37.577Z,19.38
2023-05-06T07:44:40.690Z,12.65
2023-05-06T07:49:43.932Z,13.95
2023-05-06T07:54:47.036Z,6.97
2023-05-06T07:59:51.650Z,14.82
2023-05-06T08:04:54.882Z,12.75
2023-05-06T08:09:58.026Z,5.57
2023-05-06T08:15:06.795Z,11.43
2023-05-06T08:20:10.474Z,11.70
2023-05-06T08:25:13.537Z,9.73
2023-05-06T08:30:16.667Z,10.80
2023-05-06T08:35:19.687Z,8.38
2023-05-06T08:40:24.372Z,11.13
2023-05-06T08:45:29.380Z,9.30
2023-05-06T08:50:33.385Z,13.30
2023-05-06T08:55:37.319Z,20.50
2023-05-06T09:00:40.647Z,21.30
2023-05-06T09:05:43.652Z,11.77
2023-05-06T09:10:47.648Z,19.20
2023-05-06T09:15:54.470Z,14.77
2023-05-06T09:20:59.361Z,20.23
2023-05-06T09:26:03.908Z,15.75
2023-05-06T09:31:07.267Z,11.77
2023-05-06T09:36:13.607Z,15.70
2023-05-06T09:41:21.417Z,17.58
2023-05-06T09:46:26.078Z,15.82
2023-05-06T09:51:31.392Z,15.77
2023-05-06T09:56:35.175Z,18.17
2023-05-06T10:01:39.540Z,17.52
2023-05-06T10:06:43.360Z,16.83
2023-05-06T10:11:48.163Z,22.25
2023-05-06T10:16:52.162Z,21.27
2023-05-06T10:22:29.185Z,19.38
2023-05-06T10:27:38.304Z,15.68
2023-05-06T10:32:43.786Z,20.40
2023-05-06T10:37:49.888Z,8.57
2023-05-06T10:42:53.044Z,18.45
2023-05-06T10:47:56.297Z,16.88
2023-05-06T10:53:00.165Z,11.20
2023-05-06T10:58:06.885Z,15.60
2023-05-06T11:03:19.034Z,10.52
2023-05-06T11:08:26.825Z,11.07
2023-05-06T11:13:34.831Z,15.75
2023-05-06T11:18:41.628Z,12.10
2023-05-06T11:23:49.656Z,10.57
2023-05-06T11:28:52.846Z,14.27
2023-05-06T11:34:00.003Z,10.25
2023-05-06T11:39:10.593Z,9.55
2023-05-06T11:44:24.883Z,7.90
2023-05-06T11:49:28.336Z,12.77
2023-05-06T11:54:35.236Z,20.77
2023-05-06T11:59:40.357Z,19.40
2023-05-06T12:04:46.645Z,11.45
2023-05-06T12:09:50.375Z,10.50
2023-05-06T12:14:54.132Z,9.52
2023-05-06T12:19:57.352Z,7.30
2023-05-06T12:25:16.061Z,8.35
2023-05-06T12:30:30.442Z,9.57
2023-05-06T12:35:33.481Z,12.13
2023-05-06T12:40:36.735Z,12.23
2023-05-06T12:45:40.665Z,9.38
2023-05-06T12:50:45.580Z,5.78
2023-05-06T12:55:48.520Z,10.55
2023-05-06T13:00:51.676Z,9.18
2023-05-06T13:05:54.715Z,4.20
2023-05-06T13:10:57.672Z,6.47
2023-05-06T13:16:00.770Z,9.52
2023-05-06T13:21:04.336Z,12.32
2023-05-06T13:26:07.359Z,8.02
2023-05-06T13:31:10.428Z,7.85
2023-05-06T13:36:13.424Z,15.52
2023-05-06T13:41:16.852Z,13.35
2023-05-06T13:46:20.346Z,9.27
2023-05-06T13:51:23.451Z,10.75
2023-05-06T13:56:26.572Z,7.43
2023-05-06T14:01:29.646Z,11.25
2023-05-06T14:06:32.822Z,5.68
2023-05-06T14:11:35.869Z,9.82
2023-05-06T14:16:38.922Z,11.88
2023-05-06T14:21:42.016Z,8.90
2023-05-06T14:26:46.397Z,9.30
2023-05-06T14:31:49.435Z,14.82
2023-05-06T14:36:52.496Z,12.25
2023-05-06T14:41:55.480Z,15.77
2023-05-06T14:46:58.524Z,11.52
2023-05-06T14:52:01.650Z,17.15
2023-05-06T14:57:04.732Z,12.77
2023-05-06T15:02:10.254Z,17.08
2023-05-06T15:07:13.500Z,16.80
2023-05-06T15:12:16.541Z,18.67
2023-05-06T15:17:19.537Z,9.13
2023-05-06T15:22:22.540Z,16.60
2023-05-06T15:27:25.692Z,12.07
2023-05-06T15:32:28.655Z,11.07
2023-05-06T15:37:33.798Z,12.02
2023-05-06T15:42:40.376Z,12.30
2023-05-06T15:47:43.440Z,24.25
2023-05-06T15:52:46.717Z,20.38
2023-05-06T15:57:49.758Z,31.35
2023-05-06T16:02:52.904Z,10.80
2023-05-06T16:07:59.025Z,15.60
2023-05-06T16:13:02.157Z,9.05
2023-05-06T16:18:05.395Z,10.05
2023-05-06T16:23:08.584Z,10.50
2023-05-06T16:28:11.633Z,8.85
2023-05-06T16:33:14.922Z,4.20
2023-05-06T16:38:17.982Z,8.13
2023-05-06T16:43:21.340Z,9.80
2023-05-06T16:48:24.382Z,7.68
2023-05-06T16:53:28.198Z,12.65
2023-05-06T16:58:31.388Z,10.18
2023-05-06T17:03:38.080Z,9.75
2023-05-06T17:08:41.667Z,10.13
2023-05-06T17:13:44.654Z,14.93
2023-05-06T17:18:48.196Z,7.50
2023-05-06T17:23:51.792Z,8.10
2023-05-06T17:28:55.023Z,10.07
2023-05-06T17:33:58.013Z,13.68
2023-05-06T17:39:07.706Z,6.75
2023-05-06T17:44:10.699Z,3.42
2023-05-06T17:49:13.738Z,7.53
2023-05-06T17:54:17.083Z,2.10
2023-05-06T17:59:20.538Z,4.10
2023-05-06T18:04:23.544Z,2.25
2023-05-06T18:09:26.522Z,2.08
2023-05-06T18:14:30.081Z,4.28
2023-05-06T18:19:33.084Z,2.80
2023-05-06T18:24:37.504Z,2.25
2023-05-06T18:29:41.605Z,5.70
2023-05-06T18:34:44.635Z,3.28
2023-05-06T18:39:47.727Z,3.60
2023-05-06T18:44:50.834Z,2.72
2023-05-06T18:49:53.973Z,6.57
2023-05-06T18:54:57.015Z,10.10
2023-05-06T19:00:00.054Z,8.38
2023-05-06T19:05:03.675Z,4.60
2023-05-06T19:10:07.808Z,6.45
2023-05-06T19:15:12.766Z,8.93
2023-05-06T19:20:15.967Z,5.60
2023-05-06T19:25:19.184Z,4.22
2023-05-06T19:30:23.033Z,3.67
2023-05-06T19:35:26.162Z,4.22
2023-05-06T19:40:29.463Z,2.53
2023-05-06T19:45:33.649Z,2.60
2023-05-06T19:50:37.019Z,2.78
2023-05-06T19:55:39.931Z,6.35
2023-05-06T20:00:43.745Z,0.80
2023-05-06T20:05:46.868Z,3.70
2023-05-06T20:10:50.080Z,2.20
2023-05-06T20:15:55.056Z,5.60
2023-05-06T20:20:58.392Z,5.13
2023-05-06T20:26:01.456Z,4.85
2023-05-06T20:31:04.579Z,5.35
2023-05-06T20:36:07.931Z,5.90
2023-05-06T20:41:10.840Z,5.35
2023-05-06T20:46:14.020Z,2.35
2023-05-06T20:51:17.145Z,4.40
2023-05-06T20:56:22.263Z,3.38
2023-05-06T21:01:26.246Z,1.85
2023-05-06T21:06:29.366Z,2.35
2023-05-06T21:11:32.372Z,3.53
2023-05-06T21:16:35.472Z,1.13
2023-05-06T21:21:38.514Z,2.72
2023-05-06T21:26:41.599Z,2.45
2023-05-06T21:31:44.536Z,0.80
2023-05-06T21:36:47.539Z,1.40
2023-05-06T21:41:50.503Z,3.08
2023-05-06T21:46:53.542Z,0.68
2023-05-06T21:51:56.619Z,1.48
2023-05-06T21:56:59.600Z,1.65
2023-05-06T22:02:03.620Z,2.08
2023-05-06T22:07:07.617Z,0.85
2023-05-06T22:12:12.957Z,1.77
2023-05-06T22:17:16.029Z,0.70
2023-05-06T22:22:19.124Z,3.28
2023-05-06T22:27:22.172Z,2.10
2023-05-06T22:32:25.130Z,3.30
2023-05-06T22:37:28.222Z,3.70
2023-05-06T22:42:31.281Z,6.63
2023-05-06T22:47:34.258Z,1.60
2023-05-06T22:52:38.334Z,1.75
2023-05-06T22:57:41.309Z,2.75
2023-05-06T23:02:44.423Z,2.50
2023-05-06T23:07:47.512Z,1.95
2023-05-06T23:12:50.550Z,0.68
2023-05-06T23:17:53.609Z,3.38
2023-05-06T23:22:56.906Z,1.23
2023-05-06T23:27:59.862Z,2.60
2023-05-06T23:33:04.118Z,0.70
2023-05-06T23:38:07.811Z,0.90
2023-05-06T23:43:11.632Z,0.60
2023-05-06T23:48:14.619Z,2.95
2023-05-06T23:53:17.732Z,0.43
2023-05-06T23:58:20.666Z,1.88
